createdAt,value
2023-11-15T00:02:27.199Z,5.43
2023-11-15T00:04:55.696Z,5.20
2023-11-15T00:07:24.096Z,5.27
2023-11-15T00:09:54.577Z,5.00
2023-11-15T00:12:23.052Z,5.57
2023-11-15T00:14:53.073Z,5.53
2023-11-15T00:17:22.269Z,5.30
2023-11-15T00:19:51.088Z,4.70
2023-11-15T00:22:19.802Z,4.77
2023-11-15T00:24:48.377Z,4.33
2023-11-15T00:27:18.670Z,4.23
2023-11-15T00:29:47.008Z,4.17
2023-11-15T00:32:15.721Z,4.40
2023-11-15T00:34:44.019Z,4.97
2023-11-15T00:37:12.716Z,4.70
2023-11-15T00:39:42.399Z,4.20
2023-11-15T00:42:11.529Z,4.43
2023-11-15T00:44:41.591Z,4.70
2023-11-15T00:47:09.960Z,4.37
2023-11-15T00:49:39.741Z,4.40
2023-11-15T00:52:10.402Z,4.23
2023-11-15T00:54:38.857Z,4.17
2023-11-15T00:57:07.966Z,4.07
2023-11-15T00:59:45.653Z,4.20
2023-11-15T01:02:17.852Z,4.53
2023-11-15T01:04:47.957Z,3.77
2023-11-15T01:07:16.354Z,3.30
2023-11-15T01:09:44.878Z,3.90
2023-11-15T01:12:13.574Z,3.60
2023-11-15T01:14:42.373Z,4.37
2023-11-15T01:17:11.516Z,3.83
2023-11-15T01:19:41.629Z,3.93
2023-11-15T01:22:10.306Z,4.33
2023-11-15T01:24:40.874Z,4.47
2023-11-15T01:27:09.277Z,4.30
2023-11-15T01:29:37.684Z,4.43
2023-11-15T01:32:06.618Z,4.73
2023-11-15T01:34:34.925Z,4.20
2023-11-15T01:37:05.066Z,5.20
2023-11-15T01:39:33.669Z,5.23
2023-11-15T01:42:02.240Z,4.60
2023-11-15T01:44:30.564Z,5.30
2023-11-15T01:46:59.023Z,4.93
2023-11-15T01:49:27.432Z,5.00
2023-11-15T01:51:56.827Z,5.73
2023-11-15T01:54:27.181Z,5.47
2023-11-15T01:56:55.814Z,4.87
2023-11-15T01:59:24.418Z,5.70
2023-11-15T02:01:54.618Z,5.57
2023-11-15T02:04:23.007Z,5.70
2023-11-15T02:06:52.039Z,5.67
2023-11-15T02:09:21.526Z,6.03
2023-11-15T02:11:51.774Z,5.80
2023-11-15T02:14:20.280Z,5.87
2023-11-15T02:16:49.808Z,5.97
2023-11-15T02:19:18.457Z,5.53
2023-11-15T02:21:48.039Z,4.90
2023-11-15T02:24:18.328Z,5.53
2023-11-15T02:26:48.530Z,6.07
2023-11-15T02:29:16.970Z,5.73
2023-11-15T02:31:45.553Z,6.43
2023-11-15T02:34:13.916Z,7.57
2023-11-15T02:36:42.855Z,7.40
2023-11-15T02:39:11.701Z,7.80
2023-11-15T02:41:41.882Z,7.83
2023-11-15T02:44:11.635Z,8.27
2023-11-15T02:46:40.074Z,7.90
2023-11-15T02:49:08.540Z,8.23
2023-11-15T02:51:37.384Z,8.33
2023-11-15T02:54:06.033Z,7.57
2023-11-15T02:56:34.719Z,8.57
2023-11-15T02:59:04.537Z,7.67
2023-11-15T03:01:32.985Z,8.67
2023-11-15T03:04:01.447Z,8.10
2023-11-15T03:06:29.782Z,9.17
2023-11-15T03:08:57.442Z,8.67
2023-11-15T03:11:26.180Z,8.80
2023-11-15T03:13:54.752Z,8.63
2023-11-15T03:16:24.760Z,8.60
2023-11-15T03:18:53.228Z,7.90
2023-11-15T03:21:21.784Z,7.37
2023-11-15T03:23:50.327Z,7.27
2023-11-15T03:26:18.971Z,7.27
2023-11-15T03:28:47.284Z,6.30
2023-11-15T03:31:16.345Z,6.63
2023-11-15T03:33:48.520Z,6.50
2023-11-15T03:36:17.987Z,5.90
2023-11-15T03:38:46.539Z,6.13
2023-11-15T03:41:15.190Z,6.20
2023-11-15T03:43:44.095Z,6.23
2023-11-15T03:46:12.767Z,6.60
2023-11-15T03:48:41.138Z,5.70
2023-11-15T03:51:11.027Z,6.23
2023-11-15T03:53:39.989Z,5.53
2023-11-15T03:56:09.913Z,5.60
2023-11-15T03:58:38.940Z,5.13
2023-11-15T04:01:07.346Z,5.23
2023-11-15T04:03:36.035Z,7.97
2023-11-15T04:06:05.380Z,5.10
2023-11-15T04:08:35.331Z,5.13
2023-11-15T04:11:03.741Z,4.83
2023-11-15T04:13:32.235Z,4.93
2023-11-15T04:16:00.721Z,5.97
2023-11-15T04:18:29.398Z,5.90
2023-11-15T04:20:58.037Z,5.13
2023-11-15T04:23:27.147Z,5.60
2023-11-15T04:25:59.560Z,5.00
2023-11-15T04:28:28.022Z,5.50
2023-11-15T04:30:56.492Z,5.80
2023-11-15T04:33:25.108Z,5.20
2023-11-15T04:35:53.538Z,5.37
2023-11-15T04:38:22.553Z,5.00
2023-11-15T04:40:50.871Z,5.43
2023-11-15T04:43:20.998Z,5.30
2023-11-15T04:45:49.456Z,5.07
2023-11-15T04:48:17.883Z,4.60
2023-11-15T04:50:46.320Z,5.17
2023-11-15T04:53:14.713Z,4.70
2023-11-15T04:55:43.062Z,5.07
2023-11-15T04:58:11.733Z,5.20
2023-11-15T05:00:41.610Z,4.93
2023-11-15T05:03:12.081Z,4.97
2023-11-15T05:05:43.870Z,4.60
2023-11-15T05:08:11.331Z,4.83
2023-11-15T05:10:40.127Z,4.30
2023-11-15T05:13:09.450Z,4.90
2023-11-15T05:15:38.154Z,4.17
2023-11-15T05:18:07.369Z,4.10
2023-11-15T05:20:36.261Z,4.20
2023-11-15T05:23:04.979Z,4.30
2023-11-15T05:25:33.997Z,4.30
2023-11-15T05:28:02.717Z,4.60
2023-11-15T05:30:31.177Z,4.00
2023-11-15T05:33:03.177Z,4.03
2023-11-15T05:35:32.993Z,4.10
2023-11-15T05:38:01.368Z,3.57
2023-11-15T05:40:29.954Z,3.97
2023-11-15T05:42:58.764Z,3.83
2023-11-15T05:45:27.496Z,4.00
2023-11-15T05:47:55.942Z,3.40
2023-11-15T05:50:24.417Z,3.40
2023-11-15T05:52:54.699Z,3.60
2023-11-15T05:55:23.006Z,3.40
2023-11-15T05:57:52.110Z,3.70
2023-11-15T06:00:22.208Z,3.23
2023-11-15T06:02:51.651Z,3.77
2023-11-15T06:05:21.316Z,3.30
2023-11-15T06:07:49.720Z,3.27
2023-11-15T06:10:19.647Z,3.37
2023-11-15T06:12:48.468Z,3.30
2023-11-15T06:15:17.302Z,3.30
2023-11-15T06:17:45.827Z,4.67
2023-11-15T06:20:14.938Z,3.70
2023-11-15T06:22:43.389Z,3.53
2023-11-15T06:25:20.203Z,3.40
2023-11-15T06:27:48.997Z,3.20
2023-11-15T06:30:18.874Z,2.90
2023-11-15T06:32:47.616Z,2.70
2023-11-15T06:35:20.379Z,2.60
2023-11-15T06:37:49.480Z,3.07
2023-11-15T06:40:19.990Z,3.10
2023-11-15T06:42:48.973Z,2.80
2023-11-15T06:45:17.565Z,2.10
2023-11-15T06:47:47.142Z,1.80
2023-11-15T06:50:16.899Z,3.10
2023-11-15T06:52:46.462Z,1.57
2023-11-15T06:55:14.776Z,1.50
2023-11-15T06:57:45.394Z,1.27
2023-11-15T07:00:14.863Z,1.30
2023-11-15T07:02:43.609Z,1.33
2023-11-15T07:05:12.651Z,0.97
2023-11-15T07:07:41.572Z,0.97
2023-11-15T07:10:10.927Z,1.00
2023-11-15T07:12:41.194Z,1.27
2023-11-15T07:15:15.851Z,1.47
2023-11-15T07:17:44.764Z,1.53
2023-11-15T07:20:14.863Z,1.90
2023-11-15T07:22:43.261Z,2.10
2023-11-15T07:25:14.034Z,2.03
2023-11-15T07:27:42.448Z,5.57
2023-11-15T07:30:13.856Z,2.27
2023-11-15T07:32:42.378Z,1.77
2023-11-15T07:35:11.326Z,1.90
2023-11-15T07:37:41.497Z,1.70
2023-11-15T07:40:13.758Z,2.20
2023-11-15T07:42:42.302Z,1.70
2023-11-15T07:45:13.296Z,1.90
2023-11-15T07:47:44.952Z,1.77
2023-11-15T07:50:16.459Z,1.70
2023-11-15T07:52:46.710Z,1.57
2023-11-15T07:55:16.433Z,1.80
2023-11-15T07:57:45.093Z,2.13
2023-11-15T08:00:16.891Z,2.33
2023-11-15T08:02:46.137Z,2.00
2023-11-15T08:05:15.867Z,2.80
2023-11-15T08:07:44.470Z,1.80
2023-11-15T08:10:14.624Z,1.43
2023-11-15T08:12:43.058Z,1.60
2023-11-15T08:15:12.951Z,1.30
2023-11-15T08:17:43.071Z,1.60
2023-11-15T08:20:12.706Z,1.17
2023-11-15T08:22:41.596Z,1.33
2023-11-15T08:25:11.315Z,1.47
2023-11-15T08:27:40.194Z,1.20
2023-11-15T08:30:11.741Z,7.00
2023-11-15T08:32:40.431Z,1.40
2023-11-15T08:35:12.010Z,1.37
2023-11-15T08:37:40.374Z,1.40
2023-11-15T08:40:22.582Z,1.10
2023-11-15T08:42:58.120Z,1.23
2023-11-15T08:45:26.900Z,1.70
2023-11-15T08:47:58.959Z,1.40
2023-11-15T08:50:30.522Z,1.77
2023-11-15T08:52:59.888Z,2.10
2023-11-15T08:55:28.350Z,1.90
2023-11-15T08:57:58.127Z,2.20
2023-11-15T09:00:26.912Z,2.17
2023-11-15T09:02:55.275Z,2.27
2023-11-15T09:05:24.383Z,1.80
2023-11-15T09:07:54.513Z,2.13
2023-11-15T09:10:24.274Z,2.00
2023-11-15T09:12:53.724Z,2.03
2023-11-15T09:15:23.664Z,2.00
2023-11-15T09:17:52.399Z,2.13
2023-11-15T09:20:23.037Z,1.60
2023-11-15T09:22:54.904Z,1.60
2023-11-15T09:25:27.845Z,1.70
2023-11-15T09:27:57.127Z,1.70
2023-11-15T09:30:26.741Z,1.87
2023-11-15T09:32:56.052Z,1.73
2023-11-15T09:35:29.590Z,1.60
2023-11-15T09:37:59.631Z,1.30
2023-11-15T09:40:30.416Z,1.23
2023-11-15T09:43:01.616Z,1.53
2023-11-15T09:45:31.317Z,1.60
2023-11-15T09:48:02.216Z,1.30
2023-11-15T09:50:35.086Z,1.27
2023-11-15T09:53:06.761Z,1.00
2023-11-15T09:55:36.967Z,1.13
2023-11-15T09:58:05.488Z,1.37
2023-11-15T10:00:34.012Z,1.23
2023-11-15T10:03:02.992Z,1.33
2023-11-15T10:05:33.632Z,1.03
2023-11-15T10:08:13.634Z,1.63
2023-11-15T10:10:45.101Z,1.33
2023-11-15T10:13:15.628Z,1.53
2023-11-15T10:15:46.503Z,1.73
2023-11-15T10:18:16.597Z,2.17
2023-11-15T10:20:45.467Z,2.50
2023-11-15T10:23:15.034Z,2.77
2023-11-15T10:25:52.578Z,3.03
2023-11-15T10:28:23.658Z,2.90
2023-11-15T10:31:07.096Z,3.50
2023-11-15T10:33:39.275Z,3.70
2023-11-15T10:36:17.936Z,4.40
2023-11-15T10:38:47.172Z,3.87
2023-11-15T10:41:20.331Z,3.90
2023-11-15T10:43:51.090Z,3.90
2023-11-15T10:46:20.401Z,4.30
2023-11-15T10:48:51.126Z,4.03
2023-11-15T10:51:23.309Z,3.70
2023-11-15T10:53:52.258Z,3.60
2023-11-15T10:56:24.169Z,4.60
2023-11-15T10:58:54.187Z,4.17
2023-11-15T11:01:24.621Z,3.97
2023-11-15T11:03:56.560Z,4.10
2023-11-15T11:06:28.844Z,3.60
2023-11-15T11:09:03.756Z,3.30
2023-11-15T11:11:42.045Z,3.40
2023-11-15T11:14:18.462Z,3.70
2023-11-15T11:16:47.525Z,3.43
2023-11-15T11:19:18.282Z,3.57
2023-11-15T11:22:02.941Z,3.60
2023-11-15T11:24:33.254Z,3.53
2023-11-15T11:27:16.592Z,4.23
2023-11-15T11:29:59.980Z,3.93
2023-11-15T11:32:33.250Z,4.10
2023-11-15T11:35:22.786Z,3.70
2023-11-15T11:37:54.741Z,3.70
2023-11-15T11:40:25.093Z,3.53
2023-11-15T11:42:54.720Z,3.03
2023-11-15T11:45:24.519Z,3.80
2023-11-15T11:47:54.692Z,3.60
2023-11-15T11:50:24.513Z,3.40
2023-11-15T11:52:55.221Z,4.43
2023-11-15T11:55:24.259Z,3.10
2023-11-15T11:57:53.956Z,4.83
2023-11-15T12:00:23.685Z,3.70
2023-11-15T12:03:01.042Z,3.57
2023-11-15T12:05:35.615Z,3.30
2023-11-15T12:08:05.115Z,3.87
2023-11-15T12:10:35.264Z,3.40
2023-11-15T12:13:04.839Z,3.20
2023-11-15T12:15:33.717Z,3.97
2023-11-15T12:18:03.771Z,3.60
2023-11-15T12:20:35.323Z,3.60
2023-11-15T12:23:06.073Z,3.10
2023-11-15T12:25:35.092Z,3.53
2023-11-15T12:28:04.303Z,3.60
2023-11-15T12:30:35.242Z,3.20
2023-11-15T12:33:04.123Z,3.60
2023-11-15T12:35:33.614Z,3.50
2023-11-15T12:38:07.545Z,4.13
2023-11-15T12:40:38.023Z,3.43
2023-11-15T12:43:18.818Z,4.00
2023-11-15T12:45:47.454Z,3.60
2023-11-15T12:48:16.156Z,3.83
2023-11-15T12:50:47.103Z,3.37
2023-11-15T12:53:18.552Z,3.53
2023-11-15T12:55:50.982Z,3.73
2023-11-15T12:58:19.669Z,3.30
2023-11-15T13:01:01.739Z,3.60
2023-11-15T13:03:32.138Z,4.50
2023-11-15T13:06:10.600Z,4.73
2023-11-15T13:08:40.765Z,4.57
2023-11-15T13:11:10.722Z,3.60
2023-11-15T13:13:40.182Z,4.33
2023-11-15T13:16:10.215Z,4.27
2023-11-15T13:18:39.064Z,4.30
2023-11-15T13:21:08.718Z,3.97
2023-11-15T13:23:38.308Z,4.10
2023-11-15T13:26:11.535Z,4.30
2023-11-15T13:28:40.685Z,4.43
2023-11-15T13:31:09.827Z,4.03
2023-11-15T13:33:38.732Z,4.43
2023-11-15T13:36:08.253Z,4.23
2023-11-15T13:38:36.690Z,3.87
2023-11-15T13:41:08.748Z,3.90
2023-11-15T13:43:39.058Z,4.37
2023-11-15T13:46:08.763Z,3.80
2023-11-15T13:48:38.076Z,4.30
2023-11-15T13:51:07.791Z,3.77
2023-11-15T13:53:37.892Z,3.30
2023-11-15T13:56:06.757Z,3.50
2023-11-15T13:58:36.866Z,3.53
2023-11-15T14:01:07.168Z,3.30
2023-11-15T14:03:35.694Z,3.23
2023-11-15T14:06:07.212Z,3.13
2023-11-15T14:08:47.516Z,3.13
2023-11-15T14:11:24.658Z,3.80
2023-11-15T14:13:53.173Z,3.40
2023-11-15T14:16:28.122Z,3.33
2023-11-15T14:18:56.818Z,3.87
2023-11-15T14:21:25.873Z,3.53
2023-11-15T14:23:54.639Z,2.83
2023-11-15T14:26:23.239Z,2.20
2023-11-15T14:28:53.554Z,1.70
2023-11-15T14:31:23.552Z,2.00
2023-11-15T14:33:53.336Z,2.43
2023-11-15T14:36:22.252Z,2.80
2023-11-15T14:38:53.139Z,2.70
2023-11-15T14:41:22.982Z,2.93
2023-11-15T14:43:52.950Z,2.77
2023-11-15T14:46:27.146Z,2.70
2023-11-15T14:48:55.951Z,2.40
2023-11-15T14:51:24.973Z,2.50
2023-11-15T14:53:57.292Z,2.70
2023-11-15T14:56:36.459Z,2.90
2023-11-15T14:59:05.891Z,2.07
2023-11-15T15:01:38.501Z,2.30
2023-11-15T15:04:09.832Z,2.43
2023-11-15T15:06:43.425Z,2.40
2023-11-15T15:09:20.455Z,2.20
2023-11-15T15:11:48.944Z,2.30
2023-11-15T15:14:19.259Z,2.83
2023-11-15T15:16:49.965Z,2.30
2023-11-15T15:19:18.615Z,2.83
2023-11-15T15:21:47.918Z,2.20
2023-11-15T15:24:16.683Z,3.03
2023-11-15T15:26:45.416Z,3.10
2023-11-15T15:29:22.493Z,2.90
2023-11-15T15:31:58.274Z,3.10
2023-11-15T15:34:27.357Z,2.93
2023-11-15T15:36:56.094Z,3.17
2023-11-15T15:39:26.935Z,3.10
2023-11-15T15:41:55.929Z,3.80
2023-11-15T15:44:25.836Z,2.53
2023-11-15T15:46:54.264Z,3.03
2023-11-15T15:49:24.045Z,3.50
2023-11-15T15:51:52.532Z,2.40
2023-11-15T15:54:21.705Z,2.80
2023-11-15T15:56:50.236Z,3.50
2023-11-15T15:59:18.833Z,4.17
2023-11-15T16:01:47.233Z,3.00
2023-11-15T16:04:17.475Z,2.17
2023-11-15T16:06:47.234Z,2.23
2023-11-15T16:09:15.883Z,2.37
2023-11-15T16:11:44.360Z,2.87
2023-11-15T16:14:12.839Z,3.00
2023-11-15T16:16:42.042Z,3.10
2023-11-15T16:19:10.756Z,2.90
2023-11-15T16:21:39.126Z,3.00
2023-11-15T16:24:09.911Z,3.00
2023-11-15T16:26:40.030Z,3.03
2023-11-15T16:29:10.164Z,3.20
2023-11-15T16:31:38.492Z,3.20
2023-11-15T16:34:07.325Z,2.40
2023-11-15T16:36:37.806Z,2.47
2023-11-15T16:39:12.077Z,2.70
2023-11-15T16:41:50.500Z,3.33
2023-11-15T16:44:19.998Z,3.63
2023-11-15T16:46:49.288Z,4.20
2023-11-15T16:49:20.470Z,3.50
2023-11-15T16:51:51.697Z,3.60
2023-11-15T16:54:20.232Z,4.03
2023-11-15T16:56:50.363Z,4.20
2023-11-15T16:59:19.057Z,3.70
2023-11-15T17:01:48.246Z,3.37
2023-11-15T17:04:17.029Z,4.23
2023-11-15T17:06:45.978Z,3.20
2023-11-15T17:09:16.240Z,3.13
2023-11-15T17:11:45.212Z,3.07
2023-11-15T17:14:15.221Z,3.50
2023-11-15T17:16:43.647Z,3.30
2023-11-15T17:19:12.148Z,4.10
2023-11-15T17:21:43.290Z,4.60
2023-11-15T17:24:12.392Z,4.00
2023-11-15T17:26:41.823Z,4.13
2023-11-15T17:29:11.240Z,6.43
2023-11-15T17:31:41.456Z,3.73
2023-11-15T17:34:13.336Z,3.80
2023-11-15T17:36:42.434Z,3.87
2023-11-15T17:39:19.118Z,4.00
2023-11-15T17:41:48.316Z,3.43
2023-11-15T17:44:20.657Z,3.63
2023-11-15T17:46:50.571Z,3.73
2023-11-15T17:49:18.948Z,3.77
2023-11-15T17:51:48.096Z,3.90
2023-11-15T17:54:16.756Z,3.60
2023-11-15T17:56:46.336Z,3.73
2023-11-15T17:59:14.721Z,4.07
2023-11-15T18:01:43.984Z,3.60
2023-11-15T18:04:16.289Z,3.93
2023-11-15T18:06:45.554Z,3.80
2023-11-15T18:09:14.270Z,3.40
2023-11-15T18:11:42.832Z,3.77
2023-11-15T18:14:11.956Z,4.00
2023-11-15T18:16:41.571Z,3.47
2023-11-15T18:19:11.215Z,4.30
2023-11-15T18:21:41.833Z,3.67
2023-11-15T18:24:12.808Z,3.60
2023-11-15T18:26:42.968Z,4.03
2023-11-15T18:29:12.313Z,3.10
2023-11-15T18:31:40.998Z,3.63
2023-11-15T18:34:19.037Z,3.43
2023-11-15T18:36:49.710Z,3.00
2023-11-15T18:39:18.382Z,3.40
2023-11-15T18:41:47.252Z,3.40
2023-11-15T18:44:17.617Z,3.37
2023-11-15T18:46:48.758Z,3.80
2023-11-15T18:49:20.580Z,3.30
2023-11-15T18:51:53.779Z,3.57
2023-11-15T18:54:24.432Z,3.57
2023-11-15T18:56:53.782Z,4.00
2023-11-15T18:59:22.267Z,3.40
2023-11-15T19:01:50.807Z,4.20
2023-11-15T19:04:20.288Z,3.30
2023-11-15T19:06:51.066Z,3.97
2023-11-15T19:09:24.759Z,3.30
2023-11-15T19:11:56.601Z,3.20
2023-11-15T19:14:26.895Z,4.00
2023-11-15T19:16:55.600Z,3.80
2023-11-15T19:19:24.350Z,3.93
2023-11-15T19:21:53.384Z,3.10
2023-11-15T19:24:24.791Z,3.63
2023-11-15T19:26:53.590Z,3.50
2023-11-15T19:29:22.309Z,3.50
2023-11-15T19:31:51.108Z,3.77
2023-11-15T19:34:19.653Z,4.10
2023-11-15T19:36:48.693Z,3.80
2023-11-15T19:39:18.372Z,3.60
2023-11-15T19:41:48.512Z,4.10
2023-11-15T19:44:17.244Z,3.70
2023-11-15T19:46:46.017Z,3.50
2023-11-15T19:49:16.954Z,4.33
2023-11-15T19:51:45.358Z,2.93
2023-11-15T19:54:14.038Z,4.27
2023-11-15T19:56:43.876Z,3.43
2023-11-15T19:59:14.046Z,3.83
2023-11-15T20:01:42.896Z,3.73
2023-11-15T20:04:11.893Z,3.60
2023-11-15T20:06:40.582Z,4.03
2023-11-15T20:09:11.105Z,3.83
2023-11-15T20:11:40.337Z,3.93
2023-11-15T20:14:08.775Z,4.40
2023-11-15T20:16:38.852Z,3.83
2023-11-15T20:19:08.180Z,3.83
2023-11-15T20:21:37.430Z,4.13
2023-11-15T20:24:06.479Z,3.80
2023-11-15T20:26:34.994Z,3.90
2023-11-15T20:29:03.831Z,3.93
2023-11-15T20:31:32.642Z,3.93
2023-11-15T20:34:06.573Z,3.70
2023-11-15T20:36:35.412Z,3.13
2023-11-15T20:39:14.106Z,3.53
2023-11-15T20:41:48.088Z,3.63
2023-11-15T20:44:18.676Z,3.53
2023-11-15T20:46:47.357Z,3.00
2023-11-15T20:49:17.540Z,3.50
2023-11-15T20:51:48.538Z,4.17
2023-11-15T20:54:19.155Z,3.87
2023-11-15T20:56:48.138Z,3.40
2023-11-15T20:59:16.870Z,3.73
2023-11-15T21:01:45.456Z,3.47
2023-11-15T21:04:20.638Z,3.67
2023-11-15T21:06:53.372Z,3.97
2023-11-15T21:09:21.800Z,3.43
2023-11-15T21:11:50.171Z,3.47
2023-11-15T21:14:18.451Z,3.40
2023-11-15T21:16:46.903Z,3.53
2023-11-15T21:19:15.570Z,4.30
2023-11-15T21:21:47.050Z,3.93
2023-11-15T21:24:16.947Z,3.93
2023-11-15T21:26:59.420Z,3.73
2023-11-15T21:29:30.980Z,3.80
2023-11-15T21:32:15.221Z,3.47
2023-11-15T21:34:51.371Z,3.90
2023-11-15T21:37:20.475Z,4.27
2023-11-15T21:40:25.514Z,4.20
2023-11-15T21:42:55.343Z,4.60
2023-11-15T21:45:26.433Z,4.07
2023-11-15T21:48:16.359Z,4.23
2023-11-15T21:50:50.677Z,4.10
2023-11-15T21:53:18.954Z,4.17
2023-11-15T21:55:50.770Z,4.20
2023-11-15T21:58:20.937Z,3.80
2023-11-15T22:00:49.758Z,4.27
2023-11-15T22:03:18.434Z,4.40
2023-11-15T22:05:46.804Z,4.13
2023-11-15T22:08:15.240Z,3.83
2023-11-15T22:10:44.449Z,4.80
2023-11-15T22:13:12.790Z,4.73
2023-11-15T22:15:42.591Z,3.90
2023-11-15T22:18:12.168Z,4.23
2023-11-15T22:20:42.946Z,4.20
2023-11-15T22:23:13.747Z,4.17
2023-11-15T22:25:42.164Z,4.00
2023-11-15T22:28:10.609Z,3.63
2023-11-15T22:30:38.914Z,3.60
2023-11-15T22:33:08.668Z,3.80
2023-11-15T22:35:37.753Z,3.60
2023-11-15T22:38:09.108Z,3.67
2023-11-15T22:40:37.564Z,3.67
2023-11-15T22:43:05.922Z,3.87
2023-11-15T22:45:34.381Z,3.97
2023-11-15T22:48:03.148Z,3.63
2023-11-15T22:50:34.198Z,3.97
2023-11-15T22:53:02.550Z,3.77
2023-11-15T22:55:30.971Z,3.83
2023-11-15T22:57:59.822Z,3.67
2023-11-15T23:00:34.339Z,3.90
2023-11-15T23:03:10.496Z,3.90
2023-11-15T23:05:42.578Z,3.63
2023-11-15T23:08:11.791Z,4.13
2023-11-15T23:10:40.652Z,4.00
2023-11-15T23:13:09.313Z,3.67
2023-11-15T23:15:38.061Z,3.80
2023-11-15T23:18:07.097Z,4.00
2023-11-15T23:20:37.455Z,3.83
2023-11-15T23:23:08.277Z,3.83
2023-11-15T23:25:38.952Z,3.60
2023-11-15T23:28:07.490Z,3.77
2023-11-15T23:30:36.682Z,3.97
2023-11-15T23:33:05.613Z,3.77
2023-11-15T23:35:34.212Z,3.53
2023-11-15T23:38:02.661Z,3.80
2023-11-15T23:40:32.414Z,3.10
2023-11-15T23:43:00.729Z,3.83
2023-11-15T23:45:29.802Z,3.60
2023-11-15T23:48:00.002Z,4.23
2023-11-15T23:50:28.482Z,3.93
2023-11-15T23:52:57.100Z,4.27
2023-11-15T23:55:25.371Z,4.03
2023-11-15T23:57:55.592Z,3.70
